Main page
METAR-TAF:

METAR-TAF

Airports :

Cambridge Airport

Cambridge, England

latitude: 52-12N, longitude: 000-11E, elevation: 15 m

Current weather observation

The report was made 12 hours and 6 minutes ago, at 17:50 UTC
Wind 1 kt from variable directions
Temperature 7°C
Humidity 76%
Pressure 1027 hPa
Visibility 10 km or more
Broken clouds at a height of 1500 ft

METAR: EGSC 101750Z VRB01KT 9999 BKN015 07/03 Q1027

Time: 05:56 (05:56 UTC)

Forecast

The report was made 13 hours and 1 minutes ago, at 16:55 UTC
Forecast valid from 10 at 18 UTC to 10 at 21 UTC
Wind 6 kt from the Northwest
Visibility 10 km or more
Few clouds at a height of 2500 ft
Scattered clouds at a height of 4000 ft
Probability 30%
from 10 at 19 UTC to 10 at 21 UTC
Visibility: 8000 m

TAF: EGSC 101655Z 1018/1021 31006KT 9999 FEW025 SCT040 PROB30 1019/1021 8000

Weather observations and forecasts of more than 4000 airports (METAR and TAF reports).

The available stations are represented by yellow and red dots on the map.

Hover mouse over dot to see the name of the station.

Then click to see weather observations and forecasts.

To change the map : click on the green buttons with a black cross to zoom in, on the green button with a dash to zoom out, or on the green arrows for adjacent maps.


METAR-TAF: